createdAt,value
2023-05-05T00:00:59.738Z,2.97
2023-05-05T00:03:27.753Z,2.40
2023-05-05T00:05:55.504Z,3.10
2023-05-05T00:08:23.218Z,2.50
2023-05-05T00:10:52.298Z,1.80
2023-05-05T00:13:21.052Z,2.00
2023-05-05T00:15:50.361Z,2.38
2023-05-05T00:18:18.513Z,2.17
2023-05-05T00:20:47.642Z,1.90
2023-05-05T00:23:17.011Z,2.00
2023-05-05T00:25:44.129Z,1.80
2023-05-05T00:28:11.610Z,1.90
2023-05-05T00:30:40.069Z,1.90
2023-05-05T00:33:07.476Z,2.08
2023-05-05T00:35:34.838Z,2.20
2023-05-05T00:38:03.163Z,2.10
2023-05-05T00:40:30.629Z,2.03
2023-05-05T00:42:59.658Z,2.10
2023-05-05T00:45:27.059Z,2.60
2023-05-05T00:48:00.453Z,1.90
2023-05-05T00:50:30.151Z,2.00
2023-05-05T00:53:00.900Z,2.42
2023-05-05T00:55:32.368Z,2.20
2023-05-05T00:58:01.126Z,2.08
2023-05-05T01:00:30.141Z,2.30
2023-05-05T01:02:58.101Z,2.08
2023-05-05T01:05:27.992Z,2.25
2023-05-05T01:08:02.994Z,2.40
2023-05-05T01:13:26.477Z,2.40
2023-05-05T01:16:21.166Z,2.58
2023-05-05T01:18:52.057Z,2.25
2023-05-05T01:21:29.603Z,2.42
2023-05-05T01:24:18.822Z,2.67
2023-05-05T01:27:07.849Z,2.55
2023-05-05T01:29:47.775Z,2.35
2023-05-05T01:32:16.572Z,2.80
2023-05-05T01:34:58.601Z,2.47
2023-05-05T01:37:30.726Z,2.22
2023-05-05T01:40:04.112Z,2.80
2023-05-05T01:42:34.119Z,2.60
2023-05-05T01:45:04.983Z,2.60
2023-05-05T01:47:32.887Z,2.28
2023-05-05T01:50:02.479Z,2.75
2023-05-05T01:52:32.869Z,2.80
2023-05-05T01:55:02.177Z,2.55
2023-05-05T01:57:33.743Z,2.50
2023-05-05T02:00:06.315Z,2.58
2023-05-05T02:02:45.416Z,2.55
2023-05-05T02:05:13.830Z,2.88
2023-05-05T02:07:41.897Z,2.50
2023-05-05T02:10:31.191Z,2.47
2023-05-05T02:13:01.756Z,2.83
2023-05-05T02:15:30.863Z,2.22
2023-05-05T02:17:59.778Z,2.30
2023-05-05T02:20:30.460Z,2.22
2023-05-05T02:22:57.681Z,2.20
2023-05-05T02:25:32.639Z,1.98
2023-05-05T02:28:02.806Z,1.92
2023-05-05T02:30:35.383Z,2.10
2023-05-05T02:33:09.480Z,2.15
2023-05-05T02:35:41.414Z,2.50
2023-05-05T02:38:17.561Z,2.30
2023-05-05T02:40:50.548Z,2.08
2023-05-05T02:43:21.682Z,1.98
2023-05-05T02:45:49.104Z,2.03
2023-05-05T02:48:17.386Z,2.50
2023-05-05T02:50:44.611Z,2.28
2023-05-05T02:53:27.991Z,2.05
2023-05-05T02:56:14.301Z,1.83
2023-05-05T02:59:00.516Z,2.38
2023-05-05T03:01:51.457Z,2.10
2023-05-05T03:04:29.420Z,2.10
2023-05-05T03:07:01.352Z,2.17
2023-05-05T03:09:33.147Z,2.20
2023-05-05T03:12:07.374Z,2.03
2023-05-05T03:14:47.303Z,2.10
2023-05-05T03:17:18.744Z,2.42
2023-05-05T03:19:47.004Z,2.45
2023-05-05T03:22:14.224Z,2.30
2023-05-05T03:24:50.565Z,2.60
2023-05-05T03:27:20.807Z,3.33
2023-05-05T03:29:48.294Z,2.83
2023-05-05T03:32:16.297Z,3.17
2023-05-05T03:34:44.037Z,2.90
2023-05-05T03:37:11.169Z,2.80
2023-05-05T03:39:40.174Z,3.60
2023-05-05T03:42:08.645Z,3.17
2023-05-05T03:44:36.696Z,3.47
2023-05-05T03:47:03.903Z,2.72
2023-05-05T03:49:33.907Z,2.80
2023-05-05T03:52:01.095Z,2.80
2023-05-05T03:54:28.854Z,3.00
2023-05-05T03:56:56.411Z,3.03
2023-05-05T03:59:23.722Z,4.10
2023-05-05T04:01:51.048Z,4.75
2023-05-05T04:04:18.147Z,4.50
2023-05-05T04:06:45.635Z,3.50
2023-05-05T04:09:14.637Z,3.50
2023-05-05T04:11:43.378Z,3.40
2023-05-05T04:14:11.492Z,3.50
2023-05-05T04:16:38.586Z,4.13
2023-05-05T04:19:05.998Z,3.35
2023-05-05T04:21:33.397Z,5.40
2023-05-05T04:24:01.089Z,5.88
2023-05-05T04:26:28.217Z,6.32
2023-05-05T04:28:56.284Z,4.53
2023-05-05T04:31:23.792Z,7.10
2023-05-05T04:33:51.560Z,7.72
2023-05-05T04:36:19.329Z,5.60
2023-05-05T04:38:47.541Z,5.63
2023-05-05T04:41:14.669Z,5.90
2023-05-05T04:43:43.521Z,5.05
2023-05-05T04:46:10.592Z,5.70
2023-05-05T04:48:38.596Z,4.85
2023-05-05T04:51:07.162Z,6.07
2023-05-05T04:53:34.812Z,6.30
2023-05-05T04:56:02.151Z,7.00
2023-05-05T04:58:29.407Z,6.22
2023-05-05T05:00:56.832Z,6.63
2023-05-05T05:03:24.324Z,6.53
2023-05-05T05:05:52.084Z,7.05
2023-05-05T05:08:19.201Z,6.15
2023-05-05T05:10:46.395Z,6.35
2023-05-05T05:13:13.533Z,5.93
2023-05-05T05:15:40.975Z,5.10
2023-05-05T05:18:08.355Z,5.75
2023-05-05T05:20:35.582Z,5.93
2023-05-05T05:23:02.882Z,5.60
2023-05-05T05:25:31.880Z,5.70
2023-05-05T05:28:09.497Z,5.35
2023-05-05T05:30:43.721Z,6.20
2023-05-05T05:33:11.956Z,5.65
2023-05-05T05:35:39.924Z,5.88
2023-05-05T05:38:07.178Z,5.90
2023-05-05T05:40:34.597Z,6.05
2023-05-05T05:43:03.135Z,5.22
2023-05-05T05:45:30.961Z,4.65
2023-05-05T05:47:58.232Z,5.25
2023-05-05T05:50:28.748Z,5.32
2023-05-05T05:52:58.156Z,5.18
2023-05-05T05:55:25.912Z,5.38
2023-05-05T05:57:54.221Z,5.15
2023-05-05T06:00:21.566Z,5.10
2023-05-05T06:02:56.007Z,4.40
2023-05-05T06:05:27.053Z,4.03
2023-05-05T06:07:54.563Z,4.32
2023-05-05T06:10:30.409Z,6.15
2023-05-05T06:13:02.450Z,4.30
2023-05-05T06:15:31.489Z,5.00
2023-05-05T06:17:59.901Z,3.80
2023-05-05T06:20:27.947Z,4.10
2023-05-05T06:22:56.129Z,3.53
2023-05-05T06:25:23.927Z,3.60
2023-05-05T06:27:52.416Z,3.58
2023-05-05T06:30:19.840Z,3.58
2023-05-05T06:32:46.887Z,4.13
2023-05-05T06:35:14.013Z,3.67
2023-05-05T06:37:41.189Z,3.20
2023-05-05T06:40:09.287Z,2.55
2023-05-05T06:42:36.937Z,3.60
2023-05-05T06:45:08.557Z,3.35
2023-05-05T06:47:36.464Z,3.50
2023-05-05T06:50:04.083Z,3.55
2023-05-05T06:52:31.297Z,4.03
2023-05-05T06:54:58.484Z,4.78
2023-05-05T06:57:25.837Z,3.80
2023-05-05T06:59:54.122Z,3.92
2023-05-05T07:02:21.295Z,3.83
2023-05-05T07:04:48.398Z,3.40
2023-05-05T07:07:15.634Z,2.42
2023-05-05T07:09:42.908Z,2.35
2023-05-05T07:12:10.290Z,2.03
2023-05-05T07:14:37.427Z,2.50
2023-05-05T07:17:04.596Z,2.25
2023-05-05T07:19:32.966Z,2.58
2023-05-05T07:22:00.187Z,2.85
2023-05-05T07:24:27.336Z,2.53
2023-05-05T07:26:54.589Z,2.63
2023-05-05T07:29:21.806Z,2.60
2023-05-05T07:31:48.946Z,2.30
2023-05-05T07:34:16.107Z,2.75
2023-05-05T07:36:43.156Z,2.47
2023-05-05T07:39:10.228Z,1.60
2023-05-05T07:41:37.345Z,2.00
2023-05-05T07:44:04.619Z,1.85
2023-05-05T07:46:31.748Z,1.95
2023-05-05T07:48:59.198Z,2.05
2023-05-05T07:51:26.755Z,2.00
2023-05-05T07:53:53.804Z,1.83
2023-05-05T07:56:21.781Z,1.90
2023-05-05T07:58:49.003Z,1.95
2023-05-05T08:01:16.206Z,2.25
2023-05-05T08:03:43.493Z,2.10
2023-05-05T08:06:10.787Z,1.92
2023-05-05T08:08:38.373Z,2.00
2023-05-05T08:11:06.890Z,1.90
2023-05-05T08:13:34.831Z,1.98
2023-05-05T08:16:02.212Z,2.20
2023-05-05T08:18:30.852Z,2.13
2023-05-05T08:20:58.227Z,2.42
2023-05-05T08:23:25.346Z,2.20
2023-05-05T08:25:52.476Z,2.63
2023-05-05T08:28:19.732Z,2.30
2023-05-05T08:30:47.386Z,2.33
2023-05-05T08:33:14.657Z,2.80
2023-05-05T08:35:43.118Z,2.38
2023-05-05T08:38:12.156Z,2.38
2023-05-05T08:40:40.824Z,2.33
2023-05-05T08:43:08.484Z,2.30
2023-05-05T08:45:36.944Z,2.47
2023-05-05T08:48:05.371Z,2.80
2023-05-05T08:50:33.425Z,2.70
2023-05-05T08:53:12.181Z,2.60
2023-05-05T08:55:51.503Z,3.00
2023-05-05T08:58:19.805Z,2.75
2023-05-05T09:00:48.480Z,3.10
2023-05-05T09:03:16.457Z,2.83
2023-05-05T09:05:44.557Z,2.72
2023-05-05T09:08:11.966Z,2.85
2023-05-05T09:10:42.718Z,3.05
2023-05-05T09:13:09.918Z,3.00
2023-05-05T09:15:39.236Z,3.42
2023-05-05T09:18:09.496Z,3.40
2023-05-05T09:20:38.851Z,2.58
2023-05-05T09:23:13.917Z,3.17
2023-05-05T09:25:43.710Z,3.15
2023-05-05T09:28:12.763Z,3.45
2023-05-05T09:30:42.223Z,2.85
2023-05-05T09:33:10.102Z,2.50
2023-05-05T09:35:54.550Z,2.60
2023-05-05T09:38:23.921Z,2.30
2023-05-05T09:40:53.385Z,2.35
2023-05-05T09:43:22.581Z,2.35
2023-05-05T09:45:51.045Z,2.20
2023-05-05T09:48:25.896Z,1.80
2023-05-05T09:50:53.367Z,1.80
2023-05-05T09:53:21.157Z,1.90
2023-05-05T09:55:56.263Z,1.95
2023-05-05T09:58:26.154Z,1.58
2023-05-05T10:00:54.524Z,1.80
2023-05-05T10:03:22.229Z,1.73
2023-05-05T10:05:58.112Z,1.60
2023-05-05T10:08:27.890Z,1.85
2023-05-05T10:10:58.466Z,1.73
2023-05-05T10:13:25.788Z,1.73
2023-05-05T10:15:55.430Z,1.50
2023-05-05T10:18:25.520Z,1.50
2023-05-05T10:21:01.842Z,1.27
2023-05-05T10:23:47.506Z,1.60
2023-05-05T10:26:16.979Z,5.03
2023-05-05T10:28:51.092Z,1.95
2023-05-05T10:31:26.472Z,1.50
2023-05-05T10:33:59.871Z,1.40
2023-05-05T10:36:29.447Z,1.67
2023-05-05T10:38:57.915Z,1.50
2023-05-05T10:41:26.766Z,1.80
2023-05-05T10:43:57.481Z,1.85
2023-05-05T10:46:27.515Z,1.70
2023-05-05T10:49:03.034Z,1.55
2023-05-05T10:52:21.215Z,1.83
2023-05-05T10:55:09.668Z,1.70
2023-05-05T10:57:40.679Z,1.60
2023-05-05T11:00:09.555Z,1.83
2023-05-05T11:02:37.595Z,1.88
2023-05-05T11:05:13.475Z,1.52
2023-05-05T11:07:43.538Z,1.40
2023-05-05T11:10:13.282Z,1.48
2023-05-05T11:12:58.016Z,1.48
2023-05-05T11:15:31.484Z,1.65
2023-05-05T11:18:05.771Z,1.33
2023-05-05T11:20:40.255Z,1.30
2023-05-05T11:23:07.737Z,1.23
2023-05-05T11:25:42.249Z,1.50
2023-05-05T11:28:09.646Z,1.50
2023-05-05T11:30:57.935Z,1.55
2023-05-05T11:33:40.957Z,1.48
2023-05-05T11:36:19.596Z,1.50
2023-05-05T11:39:12.296Z,1.60
2023-05-05T11:41:57.226Z,1.30
2023-05-05T11:44:34.676Z,1.60
2023-05-05T11:47:05.277Z,1.60
2023-05-05T11:49:37.200Z,1.50
2023-05-05T11:52:07.205Z,1.30
2023-05-05T11:54:48.793Z,1.25
2023-05-05T11:57:28.159Z,1.25
2023-05-05T12:00:02.110Z,1.42
2023-05-05T12:02:41.087Z,1.25
2023-05-05T12:05:08.994Z,1.30
2023-05-05T12:07:37.283Z,1.27
2023-05-05T12:10:05.850Z,1.25
2023-05-05T12:12:38.552Z,1.48
2023-05-05T12:15:08.012Z,1.30
2023-05-05T12:17:46.043Z,1.35
2023-05-05T12:20:13.898Z,1.50
2023-05-05T12:22:41.247Z,1.35
2023-05-05T12:25:09.612Z,1.30
2023-05-05T12:27:37.279Z,1.42
2023-05-05T12:30:13.571Z,1.08
2023-05-05T12:32:41.599Z,1.98
2023-05-05T12:35:10.145Z,1.60
2023-05-05T12:37:38.080Z,1.35
2023-05-05T12:40:06.673Z,1.42
2023-05-05T12:42:39.393Z,1.83
2023-05-05T12:45:16.174Z,1.42
2023-05-05T12:47:44.948Z,1.10
2023-05-05T12:50:12.373Z,1.48
2023-05-05T12:52:45.090Z,1.50
2023-05-05T12:55:13.005Z,1.38
2023-05-05T12:58:00.557Z,1.35
2023-05-05T13:00:30.540Z,1.38
2023-05-05T13:02:58.179Z,1.50
2023-05-05T13:05:41.169Z,1.10
2023-05-05T13:08:08.331Z,1.13
2023-05-05T13:10:36.347Z,1.00
2023-05-05T13:13:05.049Z,1.60
2023-05-05T13:15:37.540Z,1.20
2023-05-05T13:18:06.285Z,1.10
2023-05-05T13:20:33.589Z,1.02
2023-05-05T13:23:00.806Z,1.40
2023-05-05T13:25:27.917Z,1.15
2023-05-05T13:27:55.207Z,1.00
2023-05-05T13:30:22.495Z,1.23
2023-05-05T13:32:49.839Z,1.20
2023-05-05T13:35:17.336Z,1.10
2023-05-05T13:37:46.152Z,1.20
2023-05-05T13:40:14.109Z,1.00
2023-05-05T13:42:41.288Z,1.00
2023-05-05T13:45:09.155Z,1.20
2023-05-05T13:47:36.879Z,0.90
2023-05-05T13:50:05.402Z,0.93
2023-05-05T13:52:33.459Z,0.90
2023-05-05T13:55:01.194Z,1.00
2023-05-05T13:57:31.693Z,0.90
2023-05-05T13:59:58.900Z,0.95
2023-05-05T14:02:26.565Z,1.00
2023-05-05T14:04:53.782Z,1.02
2023-05-05T14:07:21.863Z,1.10
2023-05-05T14:09:49.090Z,1.08
2023-05-05T14:12:16.419Z,0.98
2023-05-05T14:14:43.563Z,1.00
2023-05-05T14:17:11.304Z,1.70
2023-05-05T14:19:38.456Z,1.30
2023-05-05T14:22:05.988Z,1.30
2023-05-05T14:24:33.115Z,0.98
2023-05-05T14:27:00.366Z,1.17
2023-05-05T14:29:27.537Z,1.20
2023-05-05T14:31:54.689Z,1.10
2023-05-05T14:34:22.057Z,1.00
2023-05-05T14:36:49.248Z,1.10
2023-05-05T14:39:17.641Z,1.00
2023-05-05T14:41:44.977Z,1.10
2023-05-05T14:44:12.245Z,1.30
2023-05-05T14:46:39.658Z,1.60
2023-05-05T14:49:06.792Z,1.40
2023-05-05T14:51:34.033Z,1.15
2023-05-05T14:54:01.229Z,1.38
2023-05-05T14:56:28.783Z,1.50
2023-05-05T14:58:55.951Z,1.10
2023-05-05T15:01:25.088Z,1.48
2023-05-05T15:03:54.269Z,1.40
2023-05-05T15:06:21.672Z,1.70
2023-05-05T15:08:49.010Z,1.25
2023-05-05T15:11:16.111Z,1.48
2023-05-05T15:13:43.497Z,1.20
2023-05-05T15:16:10.636Z,1.50
2023-05-05T15:18:38.499Z,1.35
2023-05-05T15:21:05.856Z,1.50
2023-05-05T15:23:33.178Z,1.02
2023-05-05T15:26:00.550Z,1.52
2023-05-05T15:28:27.852Z,1.27
2023-05-05T15:30:55.016Z,1.30
2023-05-05T15:33:22.162Z,1.30
2023-05-05T15:35:49.353Z,1.60
2023-05-05T15:38:16.424Z,1.50
2023-05-05T15:40:44.900Z,1.30
2023-05-05T15:43:12.736Z,1.35
2023-05-05T15:45:41.575Z,1.30
2023-05-05T15:48:08.873Z,1.35
2023-05-05T15:50:36.173Z,1.35
2023-05-05T15:53:03.229Z,1.13
2023-05-05T15:55:30.694Z,1.27
2023-05-05T15:57:57.842Z,1.60
2023-05-05T16:00:25.869Z,1.83
2023-05-05T16:02:53.060Z,1.67
2023-05-05T16:05:22.800Z,1.83
2023-05-05T16:07:53.819Z,1.73
2023-05-05T16:10:23.794Z,2.10
2023-05-05T16:12:52.209Z,2.63
2023-05-05T16:15:20.001Z,2.17
2023-05-05T16:17:47.756Z,2.00
2023-05-05T16:20:14.943Z,2.00
2023-05-05T16:22:42.137Z,1.60
2023-05-05T16:25:09.949Z,1.77
2023-05-05T16:27:37.490Z,1.80
2023-05-05T16:30:13.069Z,2.30
2023-05-05T16:32:40.369Z,1.75
2023-05-05T16:35:09.474Z,2.28
2023-05-05T16:37:36.788Z,1.85
2023-05-05T16:40:09.901Z,1.92
2023-05-05T16:42:37.356Z,2.30
2023-05-05T16:45:04.904Z,2.50
2023-05-05T16:47:32.148Z,2.20
2023-05-05T16:49:59.455Z,2.33
2023-05-05T16:52:26.913Z,1.92
2023-05-05T16:54:56.691Z,1.40
2023-05-05T16:57:27.233Z,1.80
2023-05-05T16:59:56.524Z,1.95
2023-05-05T17:02:23.740Z,2.15
2023-05-05T17:04:51.107Z,7.03
2023-05-05T17:07:18.165Z,4.28
2023-05-05T17:09:45.260Z,3.55
2023-05-05T17:12:12.439Z,4.60
2023-05-05T17:14:39.956Z,4.10
2023-05-05T17:17:07.152Z,3.75
2023-05-05T17:19:34.512Z,4.00
2023-05-05T17:22:01.623Z,3.47
2023-05-05T17:24:28.706Z,5.10
2023-05-05T17:26:56.164Z,2.50
2023-05-05T17:29:23.453Z,2.15
2023-05-05T17:31:50.906Z,2.40
2023-05-05T17:34:18.164Z,2.50
2023-05-05T17:36:45.277Z,2.70
2023-05-05T17:39:12.334Z,3.03
2023-05-05T17:41:42.631Z,2.75
2023-05-05T17:44:09.865Z,2.90
2023-05-05T17:46:37.542Z,3.75
2023-05-05T17:49:05.169Z,4.10
2023-05-05T17:51:32.385Z,3.47
2023-05-05T17:53:59.535Z,4.25
2023-05-05T17:56:26.868Z,3.72
2023-05-05T17:58:54.000Z,3.60
2023-05-05T18:01:22.886Z,4.47
2023-05-05T18:03:50.203Z,5.32
2023-05-05T18:06:17.924Z,4.80
2023-05-05T18:08:45.064Z,4.03
2023-05-05T18:11:12.208Z,4.45
2023-05-05T18:13:39.721Z,4.43
2023-05-05T18:16:07.285Z,4.78
2023-05-05T18:18:34.723Z,7.10
2023-05-05T18:21:01.862Z,6.55
2023-05-05T18:23:29.108Z,6.18
2023-05-05T18:25:56.343Z,4.57
2023-05-05T18:28:23.985Z,4.10
2023-05-05T18:30:51.309Z,4.47
2023-05-05T18:33:18.640Z,3.92
2023-05-05T18:35:46.033Z,2.88
2023-05-05T18:38:16.745Z,2.75
2023-05-05T18:40:45.440Z,2.78
2023-05-05T18:43:12.669Z,2.67
2023-05-05T18:45:40.001Z,2.83
2023-05-05T18:48:07.376Z,3.35
2023-05-05T18:50:34.673Z,3.20
2023-05-05T18:53:02.010Z,3.65
2023-05-05T18:55:29.131Z,3.80
2023-05-05T18:57:59.931Z,4.20
2023-05-05T19:00:27.517Z,4.72
2023-05-05T19:02:54.775Z,4.50
2023-05-05T19:05:22.420Z,4.40
2023-05-05T19:07:49.570Z,4.43
2023-05-05T19:10:16.650Z,3.80
2023-05-05T19:12:43.778Z,2.80
2023-05-05T19:15:11.712Z,3.70
2023-05-05T19:17:39.217Z,4.22
2023-05-05T19:20:06.852Z,4.32
2023-05-05T19:22:34.058Z,4.07
2023-05-05T19:25:01.249Z,4.40
2023-05-05T19:27:33.891Z,5.72
2023-05-05T19:30:01.332Z,5.90
2023-05-05T19:32:32.586Z,3.83
2023-05-05T19:35:00.210Z,4.18
2023-05-05T19:37:28.174Z,3.92
2023-05-05T19:39:56.735Z,3.60
2023-05-05T19:42:24.362Z,10.30
2023-05-05T19:44:51.492Z,3.38
2023-05-05T19:47:18.563Z,3.60
2023-05-05T19:49:45.776Z,4.15
2023-05-05T19:52:13.130Z,4.20
2023-05-05T19:54:40.400Z,3.85
2023-05-05T19:57:07.658Z,4.03
2023-05-05T19:59:34.911Z,3.92
2023-05-05T20:02:02.178Z,3.42
2023-05-05T20:04:29.254Z,3.35
2023-05-05T20:06:57.394Z,2.80
2023-05-05T20:09:24.525Z,2.78
2023-05-05T20:11:51.956Z,2.90
2023-05-05T20:14:19.310Z,2.65
2023-05-05T20:16:46.811Z,2.60
2023-05-05T20:19:14.232Z,2.50
2023-05-05T20:21:41.401Z,2.83
2023-05-05T20:24:09.030Z,2.20
2023-05-05T20:26:36.871Z,3.05
2023-05-05T20:29:04.217Z,3.25
2023-05-05T20:31:31.508Z,2.95
2023-05-05T20:33:58.994Z,2.50
2023-05-05T20:36:26.748Z,2.70
2023-05-05T20:38:54.146Z,2.58
2023-05-05T20:41:22.387Z,3.03
2023-05-05T20:43:49.624Z,2.60
2023-05-05T20:46:16.798Z,2.67
2023-05-05T20:48:44.629Z,2.58
2023-05-05T20:51:12.566Z,2.85
2023-05-05T20:53:40.275Z,2.85
2023-05-05T20:56:08.774Z,3.03
2023-05-05T20:58:36.824Z,2.95
2023-05-05T21:01:04.146Z,2.90
2023-05-05T21:03:31.317Z,3.03
2023-05-05T21:05:58.504Z,3.50
2023-05-05T21:08:25.904Z,3.28
2023-05-05T21:10:53.317Z,2.72
2023-05-05T21:13:20.658Z,2.80
2023-05-05T21:15:50.517Z,4.15
2023-05-05T21:18:17.991Z,2.47
2023-05-05T21:20:45.261Z,3.13
2023-05-05T21:23:12.462Z,2.53
2023-05-05T21:25:39.706Z,3.08
2023-05-05T21:28:07.162Z,2.65
2023-05-05T21:30:34.282Z,3.20
2023-05-05T21:33:01.503Z,2.80
2023-05-05T21:35:29.005Z,2.72
2023-05-05T21:37:56.179Z,2.75
2023-05-05T21:40:23.267Z,3.22
2023-05-05T21:42:50.621Z,2.88
2023-05-05T21:45:17.709Z,3.05
2023-05-05T21:47:44.965Z,2.80
2023-05-05T21:50:12.571Z,2.25
2023-05-05T21:52:40.082Z,2.22
2023-05-05T21:55:07.768Z,2.72
2023-05-05T21:57:34.877Z,3.38
2023-05-05T22:00:02.264Z,2.50
2023-05-05T22:02:40.427Z,3.92
2023-05-05T22:05:08.412Z,2.63
2023-05-05T22:07:35.665Z,2.72
2023-05-05T22:10:03.937Z,2.78
2023-05-05T22:12:33.176Z,2.45
2023-05-05T22:15:00.445Z,2.70
2023-05-05T22:17:27.636Z,3.03
2023-05-05T22:19:54.877Z,3.50
2023-05-05T22:22:22.311Z,3.60
2023-05-05T22:24:49.552Z,3.38
2023-05-05T22:27:16.938Z,3.10
2023-05-05T22:29:44.250Z,2.80
2023-05-05T22:32:11.637Z,2.80
2023-05-05T22:34:39.081Z,3.00
2023-05-05T22:37:06.279Z,2.90
2023-05-05T22:39:33.658Z,3.00
2023-05-05T22:42:02.035Z,3.17
2023-05-05T22:44:29.812Z,2.42
2023-05-05T22:46:57.071Z,2.30
2023-05-05T22:49:24.282Z,2.63
2023-05-05T22:51:52.070Z,2.50
2023-05-05T22:54:19.636Z,2.50
2023-05-05T22:56:47.399Z,2.40
2023-05-05T22:59:15.058Z,2.25
2023-05-05T23:01:42.654Z,2.83
2023-05-05T23:04:10.171Z,2.25
2023-05-05T23:06:37.567Z,2.30
2023-05-05T23:09:04.797Z,2.38
2023-05-05T23:11:32.061Z,2.75
2023-05-05T23:13:59.384Z,2.97
2023-05-05T23:16:26.561Z,2.58
2023-05-05T23:18:53.966Z,2.50
2023-05-05T23:21:21.405Z,2.65
2023-05-05T23:23:49.426Z,3.10
2023-05-05T23:26:16.716Z,2.92
2023-05-05T23:28:44.023Z,3.58
2023-05-05T23:31:11.320Z,3.13
2023-05-05T23:33:38.739Z,2.60
2023-05-05T23:36:06.136Z,2.90
2023-05-05T23:38:33.550Z,3.08
2023-05-05T23:41:00.870Z,2.80
2023-05-05T23:43:28.263Z,2.70
2023-05-05T23:45:55.908Z,3.00
2023-05-05T23:48:23.311Z,3.40
2023-05-05T23:50:50.654Z,3.33
2023-05-05T23:53:17.937Z,2.50
2023-05-05T23:55:45.395Z,2.85
2023-05-05T23:58:12.697Z,2.80
